Time;durP1;ratioP1;P1;durP2;ratioP2;P2;SDS_P1;SDS_P2;PMS_P1;PMS_P2;Temp;Humidity;BMP_temperature;BMP_pressure;BME280_temperature;BME280_humidity;BME280_pressure;Samples;Min_cycle;Max_cycle;Signal;HPM_P1;HPM_P2
2021/09/09 00:01:37;;;;;;;;;19.60;19.60;;;;;;;;5024801;28;9665;-80
2021/09/09 00:04:04;;;;;;;;;19.00;17.00;;;;;;;;5023627;28;8915;-81
2021/09/09 00:06:31;;;;;;;;;21.00;21.00;;;;;;;;5022275;28;8899;-82
2021/09/09 00:08:59;;;;;;;;;14.60;13.60;;;;;;;;5024813;28;9006;-84
2021/09/09 00:11:26;;;;;;;;;15.00;14.60;;;;;;;;5023167;28;9639;-79
2021/09/09 00:13:53;;;;;;;;;17.80;16.00;;;;;;;;5025043;28;8844;-80
2021/09/09 00:16:22;;;;;;;;;14.80;13.20;;;;;;;;5021723;28;8858;-83
2021/09/09 00:18:49;;;;;;;;;15.00;15.00;;;;;;;;5024663;28;8972;-80
2021/09/09 00:21:17;;;;;;;;;14.40;14.40;;;;;;;;5022337;28;8956;-82
2021/09/09 00:23:44;;;;;;;;;17.40;16.60;;;;;;;;5025002;28;8858;-81
2021/09/09 00:26:11;;;;;;;;;16.20;14.00;;;;;;;;5023291;28;8877;-79
2021/09/09 00:28:38;;;;;;;;;15.20;15.20;;;;;;;;5022233;28;8884;-78
2021/09/09 00:31:06;;;;;;;;;16.00;15.20;;;;;;;;5023888;28;8973;-80
2021/09/09 00:33:34;;;;;;;;;14.00;14.00;;;;;;;;5022922;28;8862;-79
2021/09/09 00:36:02;;;;;;;;;18.20;16.00;;;;;;;;5023568;28;8924;-79
2021/09/09 00:38:29;;;;;;;;;20.60;19.20;;;;;;;;5023527;28;8862;-79
2021/09/09 00:40:57;;;;;;;;;14.80;13.80;;;;;;;;5026039;28;9135;-80
2021/09/09 00:43:25;;;;;;;;;15.80;15.20;;;;;;;;5023608;28;8858;-78
2021/09/09 00:45:53;;;;;;;;;13.80;13.80;;;;;;;;5020646;28;8908;-81
2021/09/09 00:48:20;;;;;;;;;13.60;13.60;;;;;;;;5022607;28;8953;-78
2021/09/09 00:50:50;;;;;;;;;16.60;14.00;;;;;;;;5023626;28;8923;-79
2021/09/09 00:53:17;;;;;;;;;17.80;17.80;;;;;;;;5025333;28;8875;-79
2021/09/09 00:55:45;;;;;;;;;15.60;15.60;;;;;;;;5023171;28;8874;-78
2021/09/09 00:58:12;;;;;;;;;15.00;15.00;;;;;;;;5022241;28;8875;-79
2021/09/09 01:00:40;;;;;;;;;15.40;15.40;;;;;;;;5022629;28;8817;-79
2021/09/09 01:03:08;;;;;;;;;21.80;19.00;;;;;;;;5024693;28;8869;-81
2021/09/09 01:05:35;;;;;;;;;17.60;17.20;;;;;;;;5023072;28;8881;-78
2021/09/09 01:08:05;;;;;;;;;21.20;19.40;;;;;;;;5023423;28;8869;-83
2021/09/09 01:10:32;;;;;;;;;21.00;20.60;;;;;;;;5024165;28;8838;-80
2021/09/09 01:13:00;;;;;;;;;20.40;20.40;;;;;;;;5021109;28;9832;-78
2021/09/09 01:15:27;;;;;;;;;21.40;21.40;;;;;;;;5022712;28;8896;-83
2021/09/09 01:17:54;;;;;;;;;22.40;22.40;;;;;;;;5022774;28;9563;-83
2021/09/09 01:20:22;;;;;;;;;19.60;19.60;;;;;;;;5023303;28;8904;-81
2021/09/09 01:22:49;;;;;;;;;21.80;21.00;;;;;;;;5023292;28;9572;-78
2021/09/09 01:25:18;;;;;;;;;26.20;24.60;;;;;;;;5022491;28;8886;-81
2021/09/09 01:27:45;;;;;;;;;23.80;21.40;;;;;;;;5020604;28;8857;-79
2021/09/09 01:30:13;;;;;;;;;24.20;23.60;;;;;;;;5020293;28;9298;-79
2021/09/09 01:32:41;;;;;;;;;22.80;21.20;;;;;;;;5022456;28;8873;-78
2021/09/09 01:35:09;;;;;;;;;21.00;21.00;;;;;;;;5021964;28;8865;-79
2021/09/09 01:37:36;;;;;;;;;15.40;15.40;;;;;;;;5024030;28;8849;-81
2021/09/09 01:40:04;;;;;;;;;20.60;17.60;;;;;;;;5019996;28;8887;-80
2021/09/09 01:42:32;;;;;;;;;16.20;15.60;;;;;;;;5022095;28;8881;-79
2021/09/09 01:45:00;;;;;;;;;19.60;19.60;;;;;;;;5037710;28;8894;-82
2021/09/09 01:47:27;;;;;;;;;16.80;15.00;;;;;;;;5024394;28;8923;-79
2021/09/09 01:49:54;;;;;;;;;21.20;20.40;;;;;;;;5024454;28;8872;-78
2021/09/09 01:52:22;;;;;;;;;17.60;17.00;;;;;;;;5021356;28;8911;-82
2021/09/09 01:54:49;;;;;;;;;23.00;23.00;;;;;;;;5006545;28;8893;-83
2021/09/09 01:57:16;;;;;;;;;22.20;21.80;;;;;;;;5022639;28;8865;-81
2021/09/09 01:59:45;;;;;;;;;20.00;19.00;;;;;;;;5022303;28;8915;-80
2021/09/09 02:02:12;;;;;;;;;22.80;21.80;;;;;;;;5022270;28;8829;-81
2021/09/09 02:04:39;;;;;;;;;18.60;18.60;;;;;;;;5022029;28;8862;-82
2021/09/09 02:07:06;;;;;;;;;16.80;16.80;;;;;;;;5022133;28;8885;-79
2021/09/09 02:09:34;;;;;;;;;19.40;16.80;;;;;;;;5021477;28;8889;-81
2021/09/09 02:12:01;;;;;;;;;22.40;18.80;;;;;;;;5022991;28;8865;-82
2021/09/09 02:14:28;;;;;;;;;23.00;21.80;;;;;;;;5020888;28;8861;-78
2021/09/09 02:16:57;;;;;;;;;16.40;16.40;;;;;;;;5022848;28;8841;-79
2021/09/09 02:19:24;;;;;;;;;19.20;19.20;;;;;;;;5020378;28;8893;-79
2021/09/09 02:21:51;;;;;;;;;19.20;17.40;;;;;;;;5022186;28;8865;-79
2021/09/09 02:24:19;;;;;;;;;20.60;20.20;;;;;;;;5022320;28;8858;-79
2021/09/09 02:26:46;;;;;;;;;23.40;21.00;;;;;;;;5020478;28;8900;-79
2021/09/09 02:29:13;;;;;;;;;19.00;17.20;;;;;;;;5021864;28;8885;-81
2021/09/09 02:31:41;;;;;;;;;19.40;18.80;;;;;;;;5020771;28;8838;-79
2021/09/09 02:34:09;;;;;;;;;19.20;19.20;;;;;;;;5021068;28;8857;-79
2021/09/09 02:36:36;;;;;;;;;20.20;20.20;;;;;;;;5021163;28;8984;-79
2021/09/09 02:39:04;;;;;;;;;21.60;18.80;;;;;;;;5021831;28;8862;-79
2021/09/09 02:41:32;;;;;;;;;22.80;21.00;;;;;;;;5023065;28;8861;-79
2021/09/09 02:43:59;;;;;;;;;19.60;18.20;;;;;;;;5020974;28;8865;-79
2021/09/09 02:46:26;;;;;;;;;19.80;19.80;;;;;;;;5018966;28;8888;-78
2021/09/09 02:48:54;;;;;;;;;22.00;22.00;;;;;;;;5022077;28;8866;-80
2021/09/09 02:51:22;;;;;;;;;26.20;21.00;;;;;;;;5021829;28;9005;-78
2021/09/09 02:53:51;;;;;;;;;20.20;19.20;;;;;;;;5019338;28;8849;-79
2021/09/09 02:56:18;;;;;;;;;18.00;16.00;;;;;;;;5021865;28;9612;-81
2021/09/09 02:58:45;;;;;;;;;19.00;19.00;;;;;;;;5023610;28;8899;-79
2021/09/09 03:01:13;;;;;;;;;23.60;22.60;;;;;;;;5019514;28;8891;-80
2021/09/09 03:03:41;;;;;;;;;23.60;22.20;;;;;;;;5022031;28;8850;-80
2021/09/09 03:06:08;;;;;;;;;18.20;17.80;;;;;;;;5021051;28;8915;-78
2021/09/09 03:08:37;;;;;;;;;24.20;24.20;;;;;;;;5021777;28;8850;-81
2021/09/09 03:11:04;;;;;;;;;26.00;24.20;;;;;;;;5020091;28;8874;-80
2021/09/09 03:13:31;;;;;;;;;22.40;20.00;;;;;;;;5023240;28;8869;-80
2021/09/09 03:15:58;;;;;;;;;24.60;24.60;;;;;;;;5020425;28;8978;-83
2021/09/09 03:18:26;;;;;;;;;27.20;25.60;;;;;;;;5021059;28;8854;-80
2021/09/09 03:20:53;;;;;;;;;20.20;20.20;;;;;;;;5021976;28;8871;-79
2021/09/09 03:23:20;;;;;;;;;27.00;23.80;;;;;;;;5020189;28;8866;-79
2021/09/09 03:25:49;;;;;;;;;21.60;20.00;;;;;;;;5021784;28;8877;-82
2021/09/09 03:28:16;;;;;;;;;26.60;25.60;;;;;;;;5018522;28;8888;-82
2021/09/09 03:30:44;;;;;;;;;26.20;24.20;;;;;;;;5021315;28;8826;-80
2021/09/09 03:33:11;;;;;;;;;24.80;23.20;;;;;;;;5021190;28;8884;-78
2021/09/09 03:35:38;;;;;;;;;23.40;23.40;;;;;;;;5021597;28;8858;-79
2021/09/09 03:38:06;;;;;;;;;23.60;23.60;;;;;;;;5021611;28;8875;-79
2021/09/09 03:40:33;;;;;;;;;22.60;21.80;;;;;;;;5020133;28;8957;-80
2021/09/09 03:43:02;;;;;;;;;23.00;23.00;;;;;;;;5019683;28;8846;-78
2021/09/09 03:45:29;;;;;;;;;22.40;19.00;;;;;;;;5017720;28;8875;-79
2021/09/09 03:47:57;;;;;;;;;28.40;23.60;;;;;;;;5021717;28;8891;-80
2021/09/09 03:50:24;;;;;;;;;20.40;19.20;;;;;;;;5018787;28;9679;-83
2021/09/09 03:52:51;;;;;;;;;22.60;22.60;;;;;;;;5020253;28;9774;-80
2021/09/09 03:55:19;;;;;;;;;24.80;22.80;;;;;;;;5019874;28;8886;-82
2021/09/09 03:57:48;;;;;;;;;23.40;23.40;;;;;;;;5024029;28;8976;-80
2021/09/09 04:00:19;;;;;;;;;21.60;20.80;;;;;;;;5023870;28;8967;-78
2021/09/09 04:02:46;;;;;;;;;23.40;22.20;;;;;;;;5022746;28;8861;-77
2021/09/09 04:05:14;;;;;;;;;26.40;23.60;;;;;;;;5024330;28;8861;-81
2021/09/09 04:07:41;;;;;;;;;23.00;23.00;;;;;;;;5023625;28;8865;-82
2021/09/09 04:10:09;;;;;;;;;28.20;26.40;;;;;;;;5023854;28;8858;-79
2021/09/09 04:12:37;;;;;;;;;22.60;22.60;;;;;;;;5025625;28;8857;-78
2021/09/09 04:15:05;;;;;;;;;22.00;21.80;;;;;;;;5025177;28;8904;-80
2021/09/09 04:17:34;;;;;;;;;23.60;23.60;;;;;;;;5026825;28;8865;-81
2021/09/09 04:20:02;;;;;;;;;22.20;21.20;;;;;;;;5025799;28;8988;-84
2021/09/09 04:22:29;;;;;;;;;25.20;24.00;;;;;;;;5026961;28;8865;-79
2021/09/09 04:24:58;;;;;;;;;24.20;22.60;;;;;;;;5025157;28;8874;-78
2021/09/09 04:27:25;;;;;;;;;23.20;21.80;;;;;;;;5026089;28;8873;-78
2021/09/09 04:29:53;;;;;;;;;27.00;26.00;;;;;;;;5024488;28;9616;-79
2021/09/09 04:32:20;;;;;;;;;21.60;20.80;;;;;;;;5023625;28;8838;-78
2021/09/09 04:34:49;;;;;;;;;24.40;24.40;;;;;;;;5026663;28;8876;-79
2021/09/09 04:37:17;;;;;;;;;22.00;20.80;;;;;;;;5024083;28;8874;-81
2021/09/09 04:39:45;;;;;;;;;23.80;23.00;;;;;;;;5026882;28;8984;-81
2021/09/09 04:42:12;;;;;;;;;19.80;17.40;;;;;;;;5024237;28;8878;-81
2021/09/09 04:44:39;;;;;;;;;26.00;23.80;;;;;;;;5023073;28;8903;-83
2021/09/09 04:47:06;;;;;;;;;20.40;19.00;;;;;;;;5021317;28;8857;-81
2021/09/09 04:49:34;;;;;;;;;22.60;22.60;;;;;;;;5024612;28;8895;-82
2021/09/09 04:52:02;;;;;;;;;26.60;24.40;;;;;;;;5022192;28;8881;-78
2021/09/09 04:54:30;;;;;;;;;25.40;24.00;;;;;;;;5019098;28;8877;-74
2021/09/09 04:56:57;;;;;;;;;26.40;23.60;;;;;;;;5020577;28;8960;-78
2021/09/09 04:59:24;;;;;;;;;24.20;24.20;;;;;;;;5020251;28;8923;-76
2021/09/09 05:01:51;;;;;;;;;26.00;24.00;;;;;;;;5022482;28;9604;-76
2021/09/09 05:04:19;;;;;;;;;23.60;20.60;;;;;;;;5020403;28;8888;-76
2021/09/09 05:06:47;;;;;;;;;22.00;22.00;;;;;;;;5021088;28;8869;-74
2021/09/09 05:09:15;;;;;;;;;21.60;21.60;;;;;;;;5019799;28;8857;-75
2021/09/09 05:11:42;;;;;;;;;17.00;17.00;;;;;;;;5020111;28;8900;-75
2021/09/09 05:14:10;;;;;;;;;23.60;20.40;;;;;;;;5021493;28;9597;-74
2021/09/09 05:16:37;;;;;;;;;22.60;20.20;;;;;;;;5022259;28;8854;-73
2021/09/09 05:19:04;;;;;;;;;19.00;17.80;;;;;;;;5022095;28;8868;-75
2021/09/09 05:21:32;;;;;;;;;22.80;20.40;;;;;;;;5022302;28;8870;-76
2021/09/09 05:23:59;;;;;;;;;20.20;20.20;;;;;;;;5020750;28;8903;-73
2021/09/09 05:26:28;;;;;;;;;21.60;18.20;;;;;;;;5022565;28;8891;-77
2021/09/09 05:28:55;;;;;;;;;19.80;19.80;;;;;;;;5022244;28;8865;-77
2021/09/09 05:31:23;;;;;;;;;17.60;16.40;;;;;;;;5023546;28;8794;-76
2021/09/09 05:33:50;;;;;;;;;20.40;20.20;;;;;;;;5023943;28;8866;-77
2021/09/09 05:36:17;;;;;;;;;23.20;18.60;;;;;;;;5025328;28;8858;-78
2021/09/09 05:38:45;;;;;;;;;22.20;19.20;;;;;;;;5024241;28;8873;-77
2021/09/09 05:41:15;;;;;;;;;20.40;20.40;;;;;;;;5025229;28;8869;-78
2021/09/09 05:43:44;;;;;;;;;23.20;21.40;;;;;;;;5024720;28;8861;-78
2021/09/09 05:46:11;;;;;;;;;24.20;22.40;;;;;;;;5022757;28;8909;-80
2021/09/09 05:48:39;;;;;;;;;21.20;20.00;;;;;;;;5024775;28;8865;-79
2021/09/09 05:51:07;;;;;;;;;22.40;20.20;;;;;;;;5024110;28;9003;-77
2021/09/09 05:53:35;;;;;;;;;22.60;22.00;;;;;;;;5025199;28;8951;-78
2021/09/09 05:56:02;;;;;;;;;22.20;21.20;;;;;;;;5022154;28;8882;-77
2021/09/09 05:58:29;;;;;;;;;19.40;19.40;;;;;;;;5025522;28;8889;-78
2021/09/09 06:00:58;;;;;;;;;23.00;23.00;;;;;;;;5023463;28;8973;-77
2021/09/09 06:03:29;;;;;;;;;24.60;24.20;;;;;;;;5023401;28;8890;-77
2021/09/09 06:06:02;;;;;;;;;26.80;25.20;;;;;;;;5024954;28;8880;-79
2021/09/09 06:08:31;;;;;;;;;26.40;25.20;;;;;;;;5023833;28;8980;-77
2021/09/09 06:10:58;;;;;;;;;25.80;23.20;;;;;;;;5025248;28;8889;-78
2021/09/09 06:13:25;;;;;;;;;25.20;22.40;;;;;;;;5022137;28;8873;-78
2021/09/09 06:16:00;;;;;;;;;26.60;25.00;;;;;;;;5024965;28;8917;-77
2021/09/09 06:18:28;;;;;;;;;27.20;26.80;;;;;;;;5024111;28;8951;-77
2021/09/09 06:20:55;;;;;;;;;32.60;31.20;;;;;;;;5023940;28;8862;-77
2021/09/09 06:23:22;;;;;;;;;31.40;28.00;;;;;;;;5025903;28;8892;-79
2021/09/09 06:25:50;;;;;;;;;28.00;28.00;;;;;;;;5023269;28;9008;-78
2021/09/09 06:28:17;;;;;;;;;31.60;30.20;;;;;;;;5025008;28;9631;-78
2021/09/09 06:30:45;;;;;;;;;35.40;32.40;;;;;;;;5022835;28;8798;-78
2021/09/09 06:33:13;;;;;;;;;37.00;32.40;;;;;;;;5023639;28;8885;-78
2021/09/09 06:35:43;;;;;;;;;35.40;32.40;;;;;;;;5023686;28;8901;-79
2021/09/09 06:38:10;;;;;;;;;37.20;32.20;;;;;;;;5022768;28;9384;-77
2021/09/09 06:40:37;;;;;;;;;37.50;34.00;;;;;;;;5024167;28;8901;-78
2021/09/09 06:43:05;;;;;;;;;45.75;36.25;;;;;;;;5023641;28;9762;-78
2021/09/09 06:45:32;;;;;;;;;42.25;35.50;;;;;;;;5023785;28;8899;-78
2021/09/09 06:47:59;;;;;;;;;41.75;36.75;;;;;;;;5023229;28;8888;-77
2021/09/09 06:50:28;;;;;;;;;41.25;35.00;;;;;;;;5023935;28;9003;-78
2021/09/09 06:52:55;;;;;;;;;38.00;34.25;;;;;;;;5023725;28;8892;-78
2021/09/09 06:55:23;;;;;;;;;38.50;35.00;;;;;;;;5023721;28;8916;-78
2021/09/09 06:57:50;;;;;;;;;43.50;36.50;;;;;;;;5024271;28;8913;-78
2021/09/09 07:00:20;;;;;;;;;40.75;36.25;;;;;;;;5021503;28;8866;-78
2021/09/09 07:02:48;;;;;;;;;40.00;35.00;;;;;;;;5024773;28;9617;-78
2021/09/09 07:05:16;;;;;;;;;44.25;35.25;;;;;;;;5022889;28;9675;-79
2021/09/09 07:07:45;;;;;;;;;37.50;33.00;;;;;;;;5023976;28;8857;-77
2021/09/09 07:10:13;;;;;;;;;47.00;39.25;;;;;;;;5022251;28;8896;-78
2021/09/09 07:12:40;;;;;;;;;45.75;38.00;;;;;;;;5023756;28;9733;-79
2021/09/09 07:15:08;;;;;;;;;46.25;37.50;;;;;;;;5023773;28;8877;-79
2021/09/09 07:17:40;;;;;;;;;46.75;37.75;;;;;;;;5024354;28;8881;-77
2021/09/09 07:20:08;;;;;;;;;50.75;40.00;;;;;;;;5024102;28;8878;-77
2021/09/09 07:22:35;;;;;;;;;45.00;38.25;;;;;;;;5021349;28;9020;-78
2021/09/09 07:25:05;;;;;;;;;43.75;36.75;;;;;;;;5021962;28;8926;-77
2021/09/09 07:27:35;;;;;;;;;47.50;38.50;;;;;;;;5021933;28;8881;-79
2021/09/09 07:30:03;;;;;;;;;41.00;36.25;;;;;;;;5025587;28;8912;-77
2021/09/09 07:32:30;;;;;;;;;41.00;35.00;;;;;;;;5026980;28;8812;-77
2021/09/09 07:34:58;;;;;;;;;40.25;36.25;;;;;;;;5027347;28;8885;-78
2021/09/09 07:37:25;;;;;;;;;46.75;37.50;;;;;;;;5028179;28;8905;-77
2021/09/09 07:39:52;;;;;;;;;46.00;39.00;;;;;;;;5026458;28;8885;-77
2021/09/09 07:42:21;;;;;;;;;38.00;34.25;;;;;;;;5029194;28;9647;-80
2021/09/09 07:44:49;;;;;;;;;40.20;34.60;;;;;;;;5024690;28;8869;-78
2021/09/09 07:47:17;;;;;;;;;43.20;35.20;;;;;;;;5027329;28;8901;-78
2021/09/09 07:49:44;;;;;;;;;40.00;33.00;;;;;;;;5026822;28;8900;-78
2021/09/09 07:52:12;;;;;;;;;43.80;37.60;;;;;;;;5026958;28;8889;-78
2021/09/09 07:54:40;;;;;;;;;46.60;38.20;;;;;;;;5025905;28;9601;-77
2021/09/09 07:57:08;;;;;;;;;43.20;35.40;;;;;;;;5026056;28;8869;-76
2021/09/09 07:59:37;;;;;;;;;42.60;35.20;;;;;;;;5027496;28;8916;-76
2021/09/09 08:02:04;;;;;;;;;47.00;36.40;;;;;;;;5025648;28;9637;-79
2021/09/09 08:04:31;;;;;;;;;43.60;35.20;;;;;;;;5027715;28;9032;-77
2021/09/09 08:06:59;;;;;;;;;41.50;35.25;;;;;;;;5025781;28;8889;-80
2021/09/09 08:09:26;;;;;;;;;37.00;31.40;;;;;;;;5027059;28;8926;-78
2021/09/09 08:11:53;;;;;;;;;41.40;35.60;;;;;;;;5027026;28;8861;-78
2021/09/09 08:14:20;;;;;;;;;42.40;36.20;;;;;;;;5025575;28;8873;-76
2021/09/09 08:16:49;;;;;;;;;40.60;33.80;;;;;;;;5027171;28;8900;-77
2021/09/09 08:19:16;;;;;;;;;45.60;39.00;;;;;;;;5025917;28;9772;-77
2021/09/09 08:21:44;;;;;;;;;47.75;38.75;;;;;;;;5027197;28;9631;-78
2021/09/09 08:24:11;;;;;;;;;43.50;36.25;;;;;;;;5025709;28;8865;-78
2021/09/09 08:26:38;;;;;;;;;47.60;40.20;;;;;;;;5027320;28;9635;-79
2021/09/09 08:29:06;;;;;;;;;47.80;39.60;;;;;;;;5025338;28;8858;-78
2021/09/09 08:31:33;;;;;;;;;44.60;36.80;;;;;;;;5025033;28;8824;-79
2021/09/09 08:34:02;;;;;;;;;40.60;36.20;;;;;;;;5027473;28;8866;-79
2021/09/09 08:36:29;;;;;;;;;41.00;35.40;;;;;;;;5025392;28;8854;-78
2021/09/09 08:38:57;;;;;;;;;43.40;37.20;;;;;;;;5026705;28;8908;-78
2021/09/09 08:41:24;;;;;;;;;39.80;34.80;;;;;;;;5024635;28;8927;-78
2021/09/09 08:43:51;;;;;;;;;48.20;40.20;;;;;;;;5026165;28;8873;-78
2021/09/09 08:46:19;;;;;;;;;38.80;35.20;;;;;;;;5025664;28;8889;-78
2021/09/09 08:48:49;;;;;;;;;41.40;35.20;;;;;;;;5025960;28;8887;-78
2021/09/09 08:51:18;;;;;;;;;45.20;38.20;;;;;;;;5026682;28;8988;-80
2021/09/09 08:53:46;;;;;;;;;39.40;35.60;;;;;;;;5012066;28;8890;-78
2021/09/09 08:56:14;;;;;;;;;46.80;39.80;;;;;;;;5026182;28;9719;-79
2021/09/09 08:58:42;;;;;;;;;39.00;32.60;;;;;;;;5024648;28;8897;-78
2021/09/09 09:01:11;;;;;;;;;42.40;36.00;;;;;;;;5025713;28;8812;-76
2021/09/09 09:03:46;;;;;;;;;35.00;32.40;;;;;;;;5025980;28;9024;-77
2021/09/09 09:06:33;;;;;;;;;40.60;36.00;;;;;;;;5025471;28;8862;-76
2021/09/09 09:09:02;;;;;;;;;40.40;33.20;;;;;;;;5026007;28;8876;-78
2021/09/09 09:11:31;;;;;;;;;39.00;33.20;;;;;;;;5025281;28;8908;-77
2021/09/09 09:13:59;;;;;;;;;37.40;32.80;;;;;;;;5026726;28;8897;-76
2021/09/09 09:16:28;;;;;;;;;43.20;35.80;;;;;;;;5024201;28;9010;-77
2021/09/09 09:18:57;;;;;;;;;44.00;36.60;;;;;;;;5024453;28;8988;-77
2021/09/09 09:21:25;;;;;;;;;33.40;31.20;;;;;;;;5025496;28;8854;-79
2021/09/09 09:23:55;;;;;;;;;42.60;35.80;;;;;;;;5025222;28;8873;-80
2021/09/09 09:26:22;;;;;;;;;43.60;36.60;;;;;;;;5025471;28;8856;-77
2021/09/09 09:28:51;;;;;;;;;45.40;34.80;;;;;;;;5024463;28;8911;-78
2021/09/09 09:31:20;;;;;;;;;39.20;35.20;;;;;;;;5025583;28;8810;-77
2021/09/09 09:33:51;;;;;;;;;44.00;37.20;;;;;;;;5024753;28;8940;-78
2021/09/09 09:36:22;;;;;;;;;44.00;36.80;;;;;;;;5025558;28;8885;-80
2021/09/09 09:38:50;;;;;;;;;46.00;38.80;;;;;;;;5025385;28;8895;-78
2021/09/09 09:41:22;;;;;;;;;45.60;38.00;;;;;;;;5024771;28;8885;-77
2021/09/09 09:43:54;;;;;;;;;43.40;37.40;;;;;;;;5021674;28;8888;-79
2021/09/09 09:46:30;;;;;;;;;43.60;37.00;;;;;;;;5023695;28;9008;-79
2021/09/09 09:49:12;;;;;;;;;45.00;37.40;;;;;;;;5025191;28;8884;-79
2021/09/09 09:51:41;;;;;;;;;44.00;37.20;;;;;;;;5024503;28;8902;-81
2021/09/09 09:54:13;;;;;;;;;44.20;37.40;;;;;;;;5024002;28;8898;-77
2021/09/09 09:56:46;;;;;;;;;43.00;36.60;;;;;;;;5025474;28;8860;-77
2021/09/09 09:59:14;;;;;;;;;46.60;39.20;;;;;;;;5023403;28;8897;-79
2021/09/09 10:01:42;;;;;;;;;46.20;38.80;;;;;;;;5024062;28;9477;-80
2021/09/09 10:04:12;;;;;;;;;44.60;36.00;;;;;;;;5022917;28;8895;-80
2021/09/09 10:06:40;;;;;;;;;31.80;30.80;;;;;;;;5023960;28;8900;-80
2021/09/09 10:09:07;;;;;;;;;41.80;35.80;;;;;;;;5023857;28;8853;-81
2021/09/09 10:11:35;;;;;;;;;47.80;37.00;;;;;;;;5025273;28;8975;-80
2021/09/09 10:14:05;;;;;;;;;45.80;38.40;;;;;;;;5025362;28;8888;-81
2021/09/09 10:16:35;;;;;;;;;44.40;37.60;;;;;;;;5023207;28;8862;-81
2021/09/09 10:19:03;;;;;;;;;46.60;38.00;;;;;;;;5025648;28;8897;-79
2021/09/09 10:21:46;;;;;;;;;44.00;37.40;;;;;;;;5023739;28;8893;-77
2021/09/09 10:24:18;;;;;;;;;44.20;37.60;;;;;;;;5024454;28;8969;-81
2021/09/09 10:26:46;;;;;;;;;49.40;41.00;;;;;;;;5027243;28;8849;-80
2021/09/09 10:29:45;;;;;;;;;45.20;37.60;;;;;;;;5025548;28;8867;-78
2021/09/09 10:32:47;;;;;;;;;47.60;38.80;;;;;;;;5025248;28;8818;-78
2021/09/09 10:35:30;;;;;;;;;50.40;42.20;;;;;;;;5024298;28;8935;-78
2021/09/09 10:38:00;;;;;;;;;48.00;40.20;;;;;;;;5024008;28;8857;-77
2021/09/09 10:40:38;;;;;;;;;47.20;39.60;;;;;;;;5024198;28;8841;-78
2021/09/09 10:43:07;;;;;;;;;46.00;38.80;;;;;;;;5023450;28;8877;-77
2021/09/09 10:45:44;;;;;;;;;45.00;38.60;;;;;;;;5022411;28;8893;-78
2021/09/09 10:48:20;;;;;;;;;46.40;38.00;;;;;;;;5014653;28;8912;-76
2021/09/09 10:50:59;;;;;;;;;47.00;39.60;;;;;;;;5020438;28;8880;-78
2021/09/09 10:53:35;;;;;;;;;41.40;36.40;;;;;;;;5019270;28;8888;-77
2021/09/09 10:56:09;;;;;;;;;45.80;38.00;;;;;;;;5021105;28;8881;-78
2021/09/09 10:58:37;;;;;;;;;45.20;38.60;;;;;;;;5022687;28;8881;-76
2021/09/09 11:01:06;;;;;;;;;43.20;35.80;;;;;;;;5020073;28;8822;-77
2021/09/09 11:03:37;;;;;;;;;45.40;39.00;;;;;;;;5020272;28;8882;-80
2021/09/09 11:06:06;;;;;;;;;40.40;36.00;;;;;;;;5019587;28;8849;-77
2021/09/09 11:08:34;;;;;;;;;37.60;33.00;;;;;;;;5020229;28;8870;-79
2021/09/09 11:11:02;;;;;;;;;44.80;37.80;;;;;;;;5023424;28;8908;-78
2021/09/09 11:13:32;;;;;;;;;47.00;38.60;;;;;;;;5019318;28;8895;-79
2021/09/09 11:15:59;;;;;;;;;41.80;36.60;;;;;;;;5020578;28;8873;-79
2021/09/09 11:18:30;;;;;;;;;39.40;34.40;;;;;;;;5018897;28;8915;-77
2021/09/09 11:21:05;;;;;;;;;42.00;37.00;;;;;;;;5020609;28;8890;-76
2021/09/09 11:23:33;;;;;;;;;41.60;36.40;;;;;;;;5018819;28;9006;-76
2021/09/09 11:26:11;;;;;;;;;39.20;33.60;;;;;;;;5020021;28;8893;-77
2021/09/09 11:28:38;;;;;;;;;40.40;35.60;;;;;;;;5018401;28;8878;-79
2021/09/09 11:31:10;;;;;;;;;45.80;36.20;;;;;;;;5021016;28;8806;-79
2021/09/09 11:34:03;;;;;;;;;45.20;38.20;;;;;;;;5018838;28;8964;-80
2021/09/09 11:36:33;;;;;;;;;30.40;30.00;;;;;;;;5020520;28;8866;-76
2021/09/09 11:39:02;;;;;;;;;38.80;34.60;;;;;;;;5020000;28;8865;-79
2021/09/09 11:41:31;;;;;;;;;40.80;35.40;;;;;;;;5022749;28;8841;-75
2021/09/09 11:43:59;;;;;;;;;36.40;33.40;;;;;;;;5022048;28;8903;-82
2021/09/09 11:46:29;;;;;;;;;42.00;35.20;;;;;;;;5020371;28;8919;-84
2021/09/09 11:48:59;;;;;;;;;42.00;34.80;;;;;;;;5017868;28;9815;-83
2021/09/09 11:51:34;;;;;;;;;35.20;31.20;;;;;;;;5020994;28;8939;-80
2021/09/09 11:54:02;;;;;;;;;34.00;31.80;;;;;;;;5021030;28;9615;-83
2021/09/09 11:56:29;;;;;;;;;33.60;31.20;;;;;;;;5022033;28;9699;-77
2021/09/09 11:58:59;;;;;;;;;35.60;31.60;;;;;;;;5021093;28;8903;-77
2021/09/09 12:01:27;;;;;;;;;33.60;30.80;;;;;;;;5019511;28;8842;-77
2021/09/09 12:03:54;;;;;;;;;35.00;32.20;;;;;;;;5020884;28;8854;-78
2021/09/09 12:06:23;;;;;;;;;36.20;30.80;;;;;;;;5019133;28;8888;-77
2021/09/09 12:08:52;;;;;;;;;31.20;30.00;;;;;;;;5021320;28;8869;-77
2021/09/09 12:11:19;;;;;;;;;32.40;30.00;;;;;;;;5020648;28;8943;-76
2021/09/09 12:13:47;;;;;;;;;37.40;32.60;;;;;;;;5021609;28;8870;-78
2021/09/09 12:16:21;;;;;;;;;36.80;31.00;;;;;;;;5021417;28;8869;-75
2021/09/09 12:18:49;;;;;;;;;37.80;33.60;;;;;;;;5024423;28;8909;-77
2021/09/09 12:21:19;;;;;;;;;42.40;33.20;;;;;;;;5026901;28;8894;-77
2021/09/09 12:24:10;;;;;;;;;38.20;34.20;;;;;;;;5022391;28;8862;-78
2021/09/09 12:26:39;;;;;;;;;37.20;32.00;;;;;;;;5020326;28;8873;-77
2021/09/09 12:29:16;;;;;;;;;31.60;29.80;;;;;;;;5023349;28;8919;-76
2021/09/09 12:31:44;;;;;;;;;33.40;30.00;;;;;;;;5023910;28;8802;-78
2021/09/09 12:34:13;;;;;;;;;29.20;28.20;;;;;;;;5027061;28;8873;-82
2021/09/09 12:36:43;;;;;;;;;33.60;30.80;;;;;;;;5023756;28;8996;-80
2021/09/09 12:39:14;;;;;;;;;33.40;30.20;;;;;;;;5021921;28;8895;-79
2021/09/09 12:41:41;;;;;;;;;29.80;29.00;;;;;;;;5020835;28;9004;-77
2021/09/09 12:44:17;;;;;;;;;31.80;30.40;;;;;;;;5024353;28;8899;-77
2021/09/09 12:46:46;;;;;;;;;30.60;28.60;;;;;;;;5026388;28;8857;-82
2021/09/09 12:49:24;;;;;;;;;28.20;27.60;;;;;;;;5025586;28;8947;-83
2021/09/09 12:52:05;;;;;;;;;30.60;29.20;;;;;;;;5023013;28;8885;-77
2021/09/09 12:54:38;;;;;;;;;27.00;22.80;;;;;;;;5026517;28;9659;-76
2021/09/09 12:57:05;;;;;;;;;21.80;21.40;;;;;;;;5024168;28;8976;-88
2021/09/09 12:59:33;;;;;;;;;21.80;21.00;;;;;;;;5020003;28;8876;-82
2021/09/09 13:02:00;;;;;;;;;22.20;19.80;;;;;;;;5024748;28;8842;-78
2021/09/09 13:04:29;;;;;;;;;21.60;21.60;;;;;;;;5026905;28;8873;-79
2021/09/09 13:06:57;;;;;;;;;18.00;17.40;;;;;;;;5025329;28;8903;-79
2021/09/09 13:09:25;;;;;;;;;22.00;22.00;;;;;;;;5026432;28;8877;-88
2021/09/09 13:12:01;;;;;;;;;27.60;25.60;;;;;;;;5014152;28;8868;-78
2021/09/09 13:14:29;;;;;;;;;16.80;16.00;;;;;;;;5022838;28;9000;-87
2021/09/09 13:16:56;;;;;;;;;15.80;15.80;;;;;;;;5025575;28;8912;-76
2021/09/09 13:19:23;;;;;;;;;18.60;18.60;;;;;;;;5024303;28;8896;-77
2021/09/09 13:21:51;;;;;;;;;16.40;16.40;;;;;;;;5025152;28;8849;-76
2021/09/09 13:24:23;;;;;;;;;21.40;21.40;;;;;;;;5022431;28;8992;-78
2021/09/09 13:26:51;;;;;;;;;16.60;16.00;;;;;;;;5024671;28;8972;-75
2021/09/09 13:29:19;;;;;;;;;17.00;17.00;;;;;;;;5022992;28;8874;-79
2021/09/09 13:31:47;;;;;;;;;9.80;9.80;;;;;;;;5024471;28;8821;-76
2021/09/09 13:34:14;;;;;;;;;10.20;10.20;;;;;;;;5025025;28;8857;-79
2021/09/09 13:36:43;;;;;;;;;7.80;7.20;;;;;;;;5024955;28;8870;-80
2021/09/09 13:39:11;;;;;;;;;10.00;8.00;;;;;;;;5025959;28;8869;-76
2021/09/09 13:41:38;;;;;;;;;8.80;8.80;;;;;;;;5024601;28;8877;-78
2021/09/09 13:44:08;;;;;;;;;8.00;8.00;;;;;;;;5025298;28;8898;-78
2021/09/09 13:46:38;;;;;;;;;15.20;15.20;;;;;;;;5023475;28;8869;-82
2021/09/09 13:49:14;;;;;;;;;16.00;16.00;;;;;;;;5024145;28;8916;-80
2021/09/09 13:51:41;;;;;;;;;17.60;14.40;;;;;;;;5024841;28;8900;-79
2021/09/09 13:54:09;;;;;;;;;13.80;13.60;;;;;;;;5022060;28;9769;-82
2021/09/09 13:56:36;;;;;;;;;15.80;13.00;;;;;;;;5024266;28;8885;-79
2021/09/09 13:59:03;;;;;;;;;11.80;11.80;;;;;;;;5023922;28;8873;-79
2021/09/09 14:01:31;;;;;;;;;13.20;12.60;;;;;;;;5024650;28;8826;-81
2021/09/09 14:04:00;;;;;;;;;14.60;14.20;;;;;;;;5022665;28;8893;-81
2021/09/09 14:06:27;;;;;;;;;14.00;12.20;;;;;;;;5024720;28;8866;-84
2021/09/09 14:08:54;;;;;;;;;14.20;14.20;;;;;;;;5022161;28;9615;-83
2021/09/09 14:11:22;;;;;;;;;9.40;9.40;;;;;;;;5023306;28;8858;-77
2021/09/09 14:13:49;;;;;;;;;9.60;9.60;;;;;;;;5024891;28;8933;-79
2021/09/09 14:16:17;;;;;;;;;9.00;9.00;;;;;;;;5023341;28;8897;-78
2021/09/09 14:18:44;;;;;;;;;8.00;7.60;;;;;;;;5023216;28;8882;-83
2021/09/09 14:21:13;;;;;;;;;8.40;8.00;;;;;;;;5022823;28;8874;-83
2021/09/09 14:23:40;;;;;;;;;6.40;6.40;;;;;;;;5024460;28;8904;-87
2021/09/09 14:26:07;;;;;;;;;9.00;9.00;;;;;;;;5023960;28;8892;-83
2021/09/09 14:28:35;;;;;;;;;8.20;8.20;;;;;;;;5024056;28;8881;-81
2021/09/09 14:31:02;;;;;;;;;10.60;7.20;;;;;;;;5023472;28;8832;-75
2021/09/09 14:33:30;;;;;;;;;7.00;7.00;;;;;;;;5023828;28;8928;-77
2021/09/09 14:35:57;;;;;;;;;7.00;7.00;;;;;;;;5023808;28;8882;-76
2021/09/09 14:38:27;;;;;;;;;6.00;6.00;;;;;;;;5021594;28;8869;-83
2021/09/09 14:40:55;;;;;;;;;4.40;4.20;;;;;;;;5023831;28;8901;-80